sensor_id;sensor_type;location;lat;lon;timestamp;P1;durP1;ratioP1;P2;durP2;ratioP2
36449;SDS011;22475;51.390;7.180;2023-08-17T00:02:22;2.42;;;1.58;;
36449;SDS011;22475;51.390;7.180;2023-08-17T00:04:49;2.45;;;1.85;;
36449;SDS011;22475;51.390;7.180;2023-08-17T00:07:17;3.97;;;1.80;;
36449;SDS011;22475;51.390;7.180;2023-08-17T00:09:44;3.92;;;2.10;;
36449;SDS011;22475;51.390;7.180;2023-08-17T00:12:11;2.15;;;1.50;;
36449;SDS011;22475;51.390;7.180;2023-08-17T00:14:37;3.88;;;1.90;;
36449;SDS011;22475;51.390;7.180;2023-08-17T00:17:04;1.48;;;1.38;;
36449;SDS011;22475;51.390;7.180;2023-08-17T00:19:31;3.00;;;2.03;;
36449;SDS011;22475;51.390;7.180;2023-08-17T00:21:58;3.45;;;2.00;;
36449;SDS011;22475;51.390;7.180;2023-08-17T00:24:26;5.55;;;1.88;;
36449;SDS011;22475;51.390;7.180;2023-08-17T00:26:53;2.33;;;2.00;;
36449;SDS011;22475;51.390;7.180;2023-08-17T00:29:19;6.90;;;2.38;;
36449;SDS011;22475;51.390;7.180;2023-08-17T00:31:47;3.33;;;1.88;;
36449;SDS011;22475;51.390;7.180;2023-08-17T00:34:14;2.17;;;1.95;;
36449;SDS011;22475;51.390;7.180;2023-08-17T00:36:40;3.70;;;1.90;;
36449;SDS011;22475;51.390;7.180;2023-08-17T00:39:07;2.10;;;1.90;;
36449;SDS011;22475;51.390;7.180;2023-08-17T00:41:35;3.63;;;2.60;;
36449;SDS011;22475;51.390;7.180;2023-08-17T00:44:02;2.45;;;2.17;;
36449;SDS011;22475;51.390;7.180;2023-08-17T00:46:29;2.80;;;1.98;;
36449;SDS011;22475;51.390;7.180;2023-08-17T00:48:56;2.95;;;2.17;;
36449;SDS011;22475;51.390;7.180;2023-08-17T00:51:24;3.25;;;2.65;;
36449;SDS011;22475;51.390;7.180;2023-08-17T00:53:52;2.40;;;2.15;;
36449;SDS011;22475;51.390;7.180;2023-08-17T00:56:20;2.60;;;2.40;;
36449;SDS011;22475;51.390;7.180;2023-08-17T00:58:49;2.58;;;2.05;;
36449;SDS011;22475;51.390;7.180;2023-08-17T01:01:17;3.20;;;1.92;;
36449;SDS011;22475;51.390;7.180;2023-08-17T01:03:45;7.07;;;2.13;;
36449;SDS011;22475;51.390;7.180;2023-08-17T01:06:12;1.90;;;1.80;;
36449;SDS011;22475;51.390;7.180;2023-08-17T01:08:39;1.50;;;1.40;;
36449;SDS011;22475;51.390;7.180;2023-08-17T01:11:08;1.90;;;1.80;;
36449;SDS011;22475;51.390;7.180;2023-08-17T01:13:47;3.10;;;2.10;;
36449;SDS011;22475;51.390;7.180;2023-08-17T01:16:20;3.88;;;2.03;;
36449;SDS011;22475;51.390;7.180;2023-08-17T01:18:50;2.28;;;2.00;;
36449;SDS011;22475;51.390;7.180;2023-08-17T01:21:18;3.53;;;2.13;;
36449;SDS011;22475;51.390;7.180;2023-08-17T01:23:50;2.65;;;1.98;;
36449;SDS011;22475;51.390;7.180;2023-08-17T01:26:17;2.97;;;1.73;;
36449;SDS011;22475;51.390;7.180;2023-08-17T01:28:44;2.05;;;1.80;;
36449;SDS011;22475;51.390;7.180;2023-08-17T01:31:14;7.43;;;2.15;;
36449;SDS011;22475;51.390;7.180;2023-08-17T01:33:47;3.80;;;2.00;;
36449;SDS011;22475;51.390;7.180;2023-08-17T01:36:18;6.57;;;2.50;;
36449;SDS011;22475;51.390;7.180;2023-08-17T01:38:49;5.93;;;1.50;;
36449;SDS011;22475;51.390;7.180;2023-08-17T01:41:19;5.78;;;1.85;;
36449;SDS011;22475;51.390;7.180;2023-08-17T01:43:48;2.05;;;1.90;;
36449;SDS011;22475;51.390;7.180;2023-08-17T01:46:16;1.38;;;1.20;;
36449;SDS011;22475;51.390;7.180;2023-08-17T01:48:44;2.20;;;1.67;;
36449;SDS011;22475;51.390;7.180;2023-08-17T01:51:13;2.95;;;1.40;;
36449;SDS011;22475;51.390;7.180;2023-08-17T01:53:42;2.42;;;1.63;;
36449;SDS011;22475;51.390;7.180;2023-08-17T01:56:10;1.98;;;1.75;;
36449;SDS011;22475;51.390;7.180;2023-08-17T01:58:37;5.82;;;1.60;;
36449;SDS011;22475;51.390;7.180;2023-08-17T02:01:04;1.85;;;1.55;;
36449;SDS011;22475;51.390;7.180;2023-08-17T02:03:31;3.60;;;1.55;;
36449;SDS011;22475;51.390;7.180;2023-08-17T02:05:58;3.88;;;1.15;;
36449;SDS011;22475;51.390;7.180;2023-08-17T02:08:25;1.40;;;1.30;;
36449;SDS011;22475;51.390;7.180;2023-08-17T02:10:52;2.92;;;1.48;;
36449;SDS011;22475;51.390;7.180;2023-08-17T02:13:20;1.52;;;1.42;;
36449;SDS011;22475;51.390;7.180;2023-08-17T02:15:47;4.43;;;1.70;;
36449;SDS011;22475;51.390;7.180;2023-08-17T02:18:14;3.35;;;1.98;;
36449;SDS011;22475;51.390;7.180;2023-08-17T02:20:40;1.45;;;1.17;;
36449;SDS011;22475;51.390;7.180;2023-08-17T02:23:07;1.70;;;1.60;;
36449;SDS011;22475;51.390;7.180;2023-08-17T02:25:37;5.10;;;2.15;;
36449;SDS011;22475;51.390;7.180;2023-08-17T02:28:04;3.10;;;2.88;;
36449;SDS011;22475;51.390;7.180;2023-08-17T02:30:32;5.72;;;2.22;;
36449;SDS011;22475;51.390;7.180;2023-08-17T02:32:59;4.95;;;2.13;;
36449;SDS011;22475;51.390;7.180;2023-08-17T02:35:25;4.03;;;3.10;;
36449;SDS011;22475;51.390;7.180;2023-08-17T02:37:52;2.50;;;2.33;;
36449;SDS011;22475;51.390;7.180;2023-08-17T02:40:19;3.55;;;3.00;;
36449;SDS011;22475;51.390;7.180;2023-08-17T02:42:46;5.28;;;3.20;;
36449;SDS011;22475;51.390;7.180;2023-08-17T02:45:13;2.28;;;2.13;;
36449;SDS011;22475;51.390;7.180;2023-08-17T02:47:41;8.32;;;4.95;;
36449;SDS011;22475;51.390;7.180;2023-08-17T02:50:08;6.10;;;2.90;;
36449;SDS011;22475;51.390;7.180;2023-08-17T02:52:35;3.03;;;2.72;;
36449;SDS011;22475;51.390;7.180;2023-08-17T02:55:02;2.55;;;2.42;;
36449;SDS011;22475;51.390;7.180;2023-08-17T02:57:29;6.18;;;2.30;;
36449;SDS011;22475;51.390;7.180;2023-08-17T02:59:56;4.60;;;3.17;;
36449;SDS011;22475;51.390;7.180;2023-08-17T03:02:23;5.70;;;4.80;;
36449;SDS011;22475;51.390;7.180;2023-08-17T03:04:51;6.18;;;5.68;;
36449;SDS011;22475;51.390;7.180;2023-08-17T03:07:18;4.60;;;4.30;;
36449;SDS011;22475;51.390;7.180;2023-08-17T03:09:45;13.20;;;7.68;;
36449;SDS011;22475;51.390;7.180;2023-08-17T03:12:12;6.60;;;4.55;;
36449;SDS011;22475;51.390;7.180;2023-08-17T03:14:38;4.78;;;4.38;;
36449;SDS011;22475;51.390;7.180;2023-08-17T03:17:05;4.97;;;3.67;;
36449;SDS011;22475;51.390;7.180;2023-08-17T03:19:32;4.45;;;4.05;;
36449;SDS011;22475;51.390;7.180;2023-08-17T03:22:00;4.15;;;3.85;;
36449;SDS011;22475;51.390;7.180;2023-08-17T03:24:27;5.30;;;4.80;;
36449;SDS011;22475;51.390;7.180;2023-08-17T03:26:53;5.80;;;5.40;;
36449;SDS011;22475;51.390;7.180;2023-08-17T03:29:20;9.90;;;7.60;;
36449;SDS011;22475;51.390;7.180;2023-08-17T03:31:47;5.05;;;4.15;;
36449;SDS011;22475;51.390;7.180;2023-08-17T03:34:14;6.32;;;5.00;;
36449;SDS011;22475;51.390;7.180;2023-08-17T03:36:41;8.27;;;7.57;;
36449;SDS011;22475;51.390;7.180;2023-08-17T03:39:09;5.90;;;4.95;;
36449;SDS011;22475;51.390;7.180;2023-08-17T03:41:36;7.28;;;6.50;;
36449;SDS011;22475;51.390;7.180;2023-08-17T03:44:03;5.43;;;4.97;;
36449;SDS011;22475;51.390;7.180;2023-08-17T03:46:32;4.88;;;4.43;;
36449;SDS011;22475;51.390;7.180;2023-08-17T03:48:59;6.60;;;6.03;;
36449;SDS011;22475;51.390;7.180;2023-08-17T03:51:26;5.20;;;4.70;;
36449;SDS011;22475;51.390;7.180;2023-08-17T03:53:53;6.05;;;5.47;;
36449;SDS011;22475;51.390;7.180;2023-08-17T03:56:21;10.50;;;7.18;;
36449;SDS011;22475;51.390;7.180;2023-08-17T03:58:47;5.88;;;5.28;;
36449;SDS011;22475;51.390;7.180;2023-08-17T04:01:14;5.85;;;5.43;;
36449;SDS011;22475;51.390;7.180;2023-08-17T04:03:41;6.40;;;5.90;;
36449;SDS011;22475;51.390;7.180;2023-08-17T04:06:08;7.50;;;6.75;;
36449;SDS011;22475;51.390;7.180;2023-08-17T04:08:35;5.38;;;4.72;;
36449;SDS011;22475;51.390;7.180;2023-08-17T04:11:02;5.88;;;5.32;;
36449;SDS011;22475;51.390;7.180;2023-08-17T04:13:31;6.00;;;5.25;;
36449;SDS011;22475;51.390;7.180;2023-08-17T04:15:58;5.78;;;5.05;;
36449;SDS011;22475;51.390;7.180;2023-08-17T04:18:24;5.43;;;5.00;;
36449;SDS011;22475;51.390;7.180;2023-08-17T04:20:51;5.82;;;5.28;;
36449;SDS011;22475;51.390;7.180;2023-08-17T04:23:18;6.90;;;4.35;;
36449;SDS011;22475;51.390;7.180;2023-08-17T04:25:46;5.53;;;5.13;;
36449;SDS011;22475;51.390;7.180;2023-08-17T04:28:13;6.40;;;5.35;;
36449;SDS011;22475;51.390;7.180;2023-08-17T04:30:41;4.93;;;4.07;;
36449;SDS011;22475;51.390;7.180;2023-08-17T04:33:08;7.70;;;4.80;;
36449;SDS011;22475;51.390;7.180;2023-08-17T04:35:35;6.15;;;4.55;;
36449;SDS011;22475;51.390;7.180;2023-08-17T04:38:02;4.28;;;3.90;;
36449;SDS011;22475;51.390;7.180;2023-08-17T04:40:28;5.10;;;4.63;;
36449;SDS011;22475;51.390;7.180;2023-08-17T04:42:55;4.70;;;4.38;;
36449;SDS011;22475;51.390;7.180;2023-08-17T04:45:22;5.22;;;4.60;;
36449;SDS011;22475;51.390;7.180;2023-08-17T04:47:50;5.40;;;4.90;;
36449;SDS011;22475;51.390;7.180;2023-08-17T04:50:17;4.70;;;4.30;;
36449;SDS011;22475;51.390;7.180;2023-08-17T04:52:44;4.15;;;3.78;;
36449;SDS011;22475;51.390;7.180;2023-08-17T04:55:11;4.95;;;4.53;;
36449;SDS011;22475;51.390;7.180;2023-08-17T04:57:38;5.35;;;4.95;;
36449;SDS011;22475;51.390;7.180;2023-08-17T05:00:05;4.15;;;3.83;;
36449;SDS011;22475;51.390;7.180;2023-08-17T05:02:34;5.07;;;4.68;;
36449;SDS011;22475;51.390;7.180;2023-08-17T05:05:03;5.35;;;4.85;;
36449;SDS011;22475;51.390;7.180;2023-08-17T05:07:31;4.95;;;4.22;;
36449;SDS011;22475;51.390;7.180;2023-08-17T05:09:58;9.00;;;4.97;;
36449;SDS011;22475;51.390;7.180;2023-08-17T05:12:24;6.50;;;4.75;;
36449;SDS011;22475;51.390;7.180;2023-08-17T05:14:51;5.35;;;4.85;;
36449;SDS011;22475;51.390;7.180;2023-08-17T05:17:18;5.97;;;4.97;;
36449;SDS011;22475;51.390;7.180;2023-08-17T05:19:44;5.22;;;4.57;;
36449;SDS011;22475;51.390;7.180;2023-08-17T05:22:13;5.32;;;4.78;;
36449;SDS011;22475;51.390;7.180;2023-08-17T05:24:39;4.45;;;4.22;;
36449;SDS011;22475;51.390;7.180;2023-08-17T05:27:06;5.68;;;5.35;;
36449;SDS011;22475;51.390;7.180;2023-08-17T05:29:33;7.82;;;4.97;;
36449;SDS011;22475;51.390;7.180;2023-08-17T05:31:59;5.85;;;5.38;;
36449;SDS011;22475;51.390;7.180;2023-08-17T05:34:26;5.47;;;4.95;;
36449;SDS011;22475;51.390;7.180;2023-08-17T05:36:53;5.40;;;4.95;;
36449;SDS011;22475;51.390;7.180;2023-08-17T05:39:21;5.85;;;5.15;;
36449;SDS011;22475;51.390;7.180;2023-08-17T05:41:48;7.53;;;5.53;;
36449;SDS011;22475;51.390;7.180;2023-08-17T05:44:15;4.78;;;4.47;;
36449;SDS011;22475;51.390;7.180;2023-08-17T05:46:42;5.22;;;4.15;;
36449;SDS011;22475;51.390;7.180;2023-08-17T05:49:09;6.45;;;4.85;;
36449;SDS011;22475;51.390;7.180;2023-08-17T05:51:36;5.55;;;5.10;;
36449;SDS011;22475;51.390;7.180;2023-08-17T05:54:03;5.38;;;4.97;;
36449;SDS011;22475;51.390;7.180;2023-08-17T05:56:32;5.63;;;4.65;;
36449;SDS011;22475;51.390;7.180;2023-08-17T05:58:59;8.10;;;5.10;;
36449;SDS011;22475;51.390;7.180;2023-08-17T06:01:25;7.05;;;5.03;;
36449;SDS011;22475;51.390;7.180;2023-08-17T06:03:52;4.95;;;4.65;;
36449;SDS011;22475;51.390;7.180;2023-08-17T06:06:19;8.25;;;4.57;;
36449;SDS011;22475;51.390;7.180;2023-08-17T06:08:45;8.75;;;5.10;;
36449;SDS011;22475;51.390;7.180;2023-08-17T06:11:12;7.28;;;5.10;;
36449;SDS011;22475;51.390;7.180;2023-08-17T06:13:40;8.02;;;4.70;;
36449;SDS011;22475;51.390;7.180;2023-08-17T06:16:07;4.65;;;4.28;;
36449;SDS011;22475;51.390;7.180;2023-08-17T06:18:35;6.13;;;5.28;;
36449;SDS011;22475;51.390;7.180;2023-08-17T06:21:03;9.65;;;5.75;;
36449;SDS011;22475;51.390;7.180;2023-08-17T06:23:29;7.40;;;6.22;;
36449;SDS011;22475;51.390;7.180;2023-08-17T06:25:56;5.18;;;4.60;;
36449;SDS011;22475;51.390;7.180;2023-08-17T06:28:23;5.68;;;5.18;;
36449;SDS011;22475;51.390;7.180;2023-08-17T06:30:52;6.55;;;4.97;;
36449;SDS011;22475;51.390;7.180;2023-08-17T06:33:19;5.90;;;5.50;;
36449;SDS011;22475;51.390;7.180;2023-08-17T06:35:48;6.55;;;5.40;;
36449;SDS011;22475;51.390;7.180;2023-08-17T06:38:14;14.65;;;5.30;;
36449;SDS011;22475;51.390;7.180;2023-08-17T06:40:45;5.37;;;4.87;;
36449;SDS011;22475;51.390;7.180;2023-08-17T06:43:12;6.13;;;5.60;;
36449;SDS011;22475;51.390;7.180;2023-08-17T06:45:39;7.70;;;5.68;;
36449;SDS011;22475;51.390;7.180;2023-08-17T06:48:08;6.47;;;5.38;;
36449;SDS011;22475;51.390;7.180;2023-08-17T06:50:34;5.38;;;4.88;;
36449;SDS011;22475;51.390;7.180;2023-08-17T06:53:01;5.45;;;4.95;;
36449;SDS011;22475;51.390;7.180;2023-08-17T06:55:28;7.07;;;5.70;;
36449;SDS011;22475;51.390;7.180;2023-08-17T06:57:55;8.10;;;4.90;;
36449;SDS011;22475;51.390;7.180;2023-08-17T07:00:22;7.93;;;5.22;;
36449;SDS011;22475;51.390;7.180;2023-08-17T07:02:49;7.78;;;4.82;;
36449;SDS011;22475;51.390;7.180;2023-08-17T07:05:18;5.85;;;5.35;;
36449;SDS011;22475;51.390;7.180;2023-08-17T07:07:44;5.80;;;5.25;;
36449;SDS011;22475;51.390;7.180;2023-08-17T07:10:11;5.85;;;4.55;;
36449;SDS011;22475;51.390;7.180;2023-08-17T07:12:38;7.43;;;6.70;;
36449;SDS011;22475;51.390;7.180;2023-08-17T07:15:06;10.40;;;5.80;;
36449;SDS011;22475;51.390;7.180;2023-08-17T07:17:33;8.38;;;4.97;;
36449;SDS011;22475;51.390;7.180;2023-08-17T07:20:01;6.97;;;6.28;;
36449;SDS011;22475;51.390;7.180;2023-08-17T07:22:30;8.00;;;5.22;;
36449;SDS011;22475;51.390;7.180;2023-08-17T07:24:56;7.57;;;4.85;;
36449;SDS011;22475;51.390;7.180;2023-08-17T07:27:23;5.22;;;4.80;;
36449;SDS011;22475;51.390;7.180;2023-08-17T07:29:50;6.93;;;4.97;;
36449;SDS011;22475;51.390;7.180;2023-08-17T07:32:17;6.30;;;4.70;;
36449;SDS011;22475;51.390;7.180;2023-08-17T07:34:44;5.13;;;4.78;;
36449;SDS011;22475;51.390;7.180;2023-08-17T07:37:10;5.05;;;4.65;;
36449;SDS011;22475;51.390;7.180;2023-08-17T07:39:38;5.97;;;5.05;;
36449;SDS011;22475;51.390;7.180;2023-08-17T07:42:05;5.28;;;4.93;;
36449;SDS011;22475;51.390;7.180;2023-08-17T07:44:32;7.25;;;5.68;;
36449;SDS011;22475;51.390;7.180;2023-08-17T07:47:00;6.28;;;5.47;;
36449;SDS011;22475;51.390;7.180;2023-08-17T07:49:27;5.18;;;4.68;;
36449;SDS011;22475;51.390;7.180;2023-08-17T07:51:54;4.95;;;4.53;;
36449;SDS011;22475;51.390;7.180;2023-08-17T07:54:21;6.60;;;5.47;;
36449;SDS011;22475;51.390;7.180;2023-08-17T07:56:49;7.85;;;5.13;;
36449;SDS011;22475;51.390;7.180;2023-08-17T07:59:16;10.15;;;7.07;;
36449;SDS011;22475;51.390;7.180;2023-08-17T08:01:42;6.00;;;4.97;;
36449;SDS011;22475;51.390;7.180;2023-08-17T08:04:09;6.72;;;5.05;;
36449;SDS011;22475;51.390;7.180;2023-08-17T08:06:36;8.32;;;5.00;;
36449;SDS011;22475;51.390;7.180;2023-08-17T08:09:03;5.63;;;5.13;;
36449;SDS011;22475;51.390;7.180;2023-08-17T08:11:30;5.53;;;5.05;;
36449;SDS011;22475;51.390;7.180;2023-08-17T08:13:58;6.90;;;5.38;;
36449;SDS011;22475;51.390;7.180;2023-08-17T08:16:28;5.32;;;4.90;;
36449;SDS011;22475;51.390;7.180;2023-08-17T08:18:55;5.22;;;4.75;;
36449;SDS011;22475;51.390;7.180;2023-08-17T08:21:22;8.63;;;6.20;;
36449;SDS011;22475;51.390;7.180;2023-08-17T08:23:49;6.55;;;5.93;;
36449;SDS011;22475;51.390;7.180;2023-08-17T08:26:15;10.13;;;7.20;;
36449;SDS011;22475;51.390;7.180;2023-08-17T08:28:42;7.75;;;6.93;;
36449;SDS011;22475;51.390;7.180;2023-08-17T08:31:10;10.38;;;5.97;;
36449;SDS011;22475;51.390;7.180;2023-08-17T08:33:37;6.90;;;6.25;;
36449;SDS011;22475;51.390;7.180;2023-08-17T08:36:04;6.07;;;5.47;;
36449;SDS011;22475;51.390;7.180;2023-08-17T08:38:31;6.00;;;5.40;;
36449;SDS011;22475;51.390;7.180;2023-08-17T08:40:58;6.63;;;5.18;;
36449;SDS011;22475;51.390;7.180;2023-08-17T08:43:25;9.00;;;5.32;;
36449;SDS011;22475;51.390;7.180;2023-08-17T08:45:51;7.60;;;4.22;;
36449;SDS011;22475;51.390;7.180;2023-08-17T08:48:20;8.18;;;4.97;;
36449;SDS011;22475;51.390;7.180;2023-08-17T08:50:48;6.45;;;4.85;;
36449;SDS011;22475;51.390;7.180;2023-08-17T08:53:21;6.80;;;5.47;;
36449;SDS011;22475;51.390;7.180;2023-08-17T08:55:57;9.77;;;5.07;;
36449;SDS011;22475;51.390;7.180;2023-08-17T08:58:25;5.23;;;4.83;;
36449;SDS011;22475;51.390;7.180;2023-08-17T09:00:52;5.68;;;5.13;;
36449;SDS011;22475;51.390;7.180;2023-08-17T09:03:21;8.93;;;6.13;;
36449;SDS011;22475;51.390;7.180;2023-08-17T09:05:49;13.40;;;6.38;;
36449;SDS011;22475;51.390;7.180;2023-08-17T09:08:20;8.55;;;5.80;;
36449;SDS011;22475;51.390;7.180;2023-08-17T09:10:48;7.60;;;5.00;;
36449;SDS011;22475;51.390;7.180;2023-08-17T09:13:15;6.10;;;4.13;;
36449;SDS011;22475;51.390;7.180;2023-08-17T09:15:42;5.45;;;4.95;;
36449;SDS011;22475;51.390;7.180;2023-08-17T09:18:09;8.75;;;4.93;;
36449;SDS011;22475;51.390;7.180;2023-08-17T09:20:38;4.82;;;4.50;;
36449;SDS011;22475;51.390;7.180;2023-08-17T09:23:10;7.57;;;5.78;;
36449;SDS011;22475;51.390;7.180;2023-08-17T09:25:39;5.43;;;4.57;;
36449;SDS011;22475;51.390;7.180;2023-08-17T09:28:07;8.77;;;4.60;;
36449;SDS011;22475;51.390;7.180;2023-08-17T09:30:43;4.43;;;4.15;;
36449;SDS011;22475;51.390;7.180;2023-08-17T09:33:16;4.82;;;4.43;;
36449;SDS011;22475;51.390;7.180;2023-08-17T09:35:44;9.57;;;5.38;;
36449;SDS011;22475;51.390;7.180;2023-08-17T09:38:11;5.15;;;4.20;;
36449;SDS011;22475;51.390;7.180;2023-08-17T09:40:38;7.25;;;4.57;;
36449;SDS011;22475;51.390;7.180;2023-08-17T09:43:05;4.20;;;3.80;;
36449;SDS011;22475;51.390;7.180;2023-08-17T09:45:32;6.82;;;5.72;;
36449;SDS011;22475;51.390;7.180;2023-08-17T09:47:59;6.85;;;5.95;;
36449;SDS011;22475;51.390;7.180;2023-08-17T09:50:26;9.95;;;5.93;;
36449;SDS011;22475;51.390;7.180;2023-08-17T09:52:54;5.32;;;4.25;;
36449;SDS011;22475;51.390;7.180;2023-08-17T09:55:21;8.27;;;6.10;;
36449;SDS011;22475;51.390;7.180;2023-08-17T09:57:49;7.88;;;5.60;;
36449;SDS011;22475;51.390;7.180;2023-08-17T10:00:17;5.75;;;5.07;;
36449;SDS011;22475;51.390;7.180;2023-08-17T10:02:45;6.55;;;5.63;;
36449;SDS011;22475;51.390;7.180;2023-08-17T10:05:16;5.60;;;5.05;;
36449;SDS011;22475;51.390;7.180;2023-08-17T10:07:46;7.97;;;6.72;;
36449;SDS011;22475;51.390;7.180;2023-08-17T10:10:15;8.23;;;6.97;;
36449;SDS011;22475;51.390;7.180;2023-08-17T10:12:48;5.53;;;4.85;;
36449;SDS011;22475;51.390;7.180;2023-08-17T10:15:21;5.85;;;5.28;;
36449;SDS011;22475;51.390;7.180;2023-08-17T10:17:58;5.22;;;4.72;;
36449;SDS011;22475;51.390;7.180;2023-08-17T10:20:29;11.82;;;6.90;;
36449;SDS011;22475;51.390;7.180;2023-08-17T10:22:59;13.70;;;8.15;;
36449;SDS011;22475;51.390;7.180;2023-08-17T10:25:31;6.80;;;5.65;;
36449;SDS011;22475;51.390;7.180;2023-08-17T10:27:58;6.13;;;5.63;;
36449;SDS011;22475;51.390;7.180;2023-08-17T10:30:28;5.70;;;5.07;;
36449;SDS011;22475;51.390;7.180;2023-08-17T10:32:55;5.65;;;4.80;;
36449;SDS011;22475;51.390;7.180;2023-08-17T10:35:23;11.00;;;7.75;;
36449;SDS011;22475;51.390;7.180;2023-08-17T10:37:51;6.50;;;5.90;;
36449;SDS011;22475;51.390;7.180;2023-08-17T10:40:24;6.63;;;5.32;;
36449;SDS011;22475;51.390;7.180;2023-08-17T10:42:54;6.35;;;5.38;;
36449;SDS011;22475;51.390;7.180;2023-08-17T10:45:25;12.38;;;7.03;;
36449;SDS011;22475;51.390;7.180;2023-08-17T10:47:59;7.35;;;5.32;;
36449;SDS011;22475;51.390;7.180;2023-08-17T10:50:59;6.97;;;5.97;;
36449;SDS011;22475;51.390;7.180;2023-08-17T10:53:33;14.38;;;6.95;;
36449;SDS011;22475;51.390;7.180;2023-08-17T10:56:04;9.63;;;6.45;;
36449;SDS011;22475;51.390;7.180;2023-08-17T10:58:33;8.77;;;6.07;;
36449;SDS011;22475;51.390;7.180;2023-08-17T11:01:00;6.07;;;4.95;;
36449;SDS011;22475;51.390;7.180;2023-08-17T11:03:26;5.20;;;4.80;;
36449;SDS011;22475;51.390;7.180;2023-08-17T11:05:54;4.18;;;3.80;;
36449;SDS011;22475;51.390;7.180;2023-08-17T11:08:23;4.88;;;4.38;;
36449;SDS011;22475;51.390;7.180;2023-08-17T11:10:58;5.13;;;4.65;;
36449;SDS011;22475;51.390;7.180;2023-08-17T11:13:29;5.97;;;5.32;;
36449;SDS011;22475;51.390;7.180;2023-08-17T11:15:57;5.43;;;4.93;;
36449;SDS011;22475;51.390;7.180;2023-08-17T11:18:24;5.30;;;4.90;;
36449;SDS011;22475;51.390;7.180;2023-08-17T11:20:52;4.68;;;4.28;;
36449;SDS011;22475;51.390;7.180;2023-08-17T11:23:19;5.15;;;4.78;;
36449;SDS011;22475;51.390;7.180;2023-08-17T11:25:47;7.85;;;5.22;;
36449;SDS011;22475;51.390;7.180;2023-08-17T11:28:16;5.07;;;4.47;;
36449;SDS011;22475;51.390;7.180;2023-08-17T11:30:43;5.18;;;4.22;;
36449;SDS011;22475;51.390;7.180;2023-08-17T11:33:10;5.28;;;4.78;;
36449;SDS011;22475;51.390;7.180;2023-08-17T11:35:37;5.32;;;4.93;;
36449;SDS011;22475;51.390;7.180;2023-08-17T11:38:04;4.60;;;4.18;;
36449;SDS011;22475;51.390;7.180;2023-08-17T11:40:31;5.75;;;5.25;;
36449;SDS011;22475;51.390;7.180;2023-08-17T11:43:00;8.40;;;5.28;;
36449;SDS011;22475;51.390;7.180;2023-08-17T11:45:27;4.30;;;3.95;;
36449;SDS011;22475;51.390;7.180;2023-08-17T11:47:54;5.53;;;4.95;;
36449;SDS011;22475;51.390;7.180;2023-08-17T11:50:24;5.47;;;4.93;;
36449;SDS011;22475;51.390;7.180;2023-08-17T11:52:51;5.80;;;5.30;;
36449;SDS011;22475;51.390;7.180;2023-08-17T11:55:18;6.07;;;5.57;;
36449;SDS011;22475;51.390;7.180;2023-08-17T11:57:45;5.18;;;4.68;;
36449;SDS011;22475;51.390;7.180;2023-08-17T12:00:18;11.07;;;5.63;;
36449;SDS011;22475;51.390;7.180;2023-08-17T12:02:46;6.40;;;4.47;;
36449;SDS011;22475;51.390;7.180;2023-08-17T12:05:13;4.22;;;3.83;;
36449;SDS011;22475;51.390;7.180;2023-08-17T12:07:45;4.75;;;4.35;;
36449;SDS011;22475;51.390;7.180;2023-08-17T12:10:12;4.40;;;3.95;;
36449;SDS011;22475;51.390;7.180;2023-08-17T12:12:39;4.97;;;4.47;;
36449;SDS011;22475;51.390;7.180;2023-08-17T12:15:06;4.45;;;4.05;;
36449;SDS011;22475;51.390;7.180;2023-08-17T12:17:37;4.20;;;4.00;;
36449;SDS011;22475;51.390;7.180;2023-08-17T12:20:14;4.38;;;4.00;;
36449;SDS011;22475;51.390;7.180;2023-08-17T12:22:42;5.03;;;4.53;;
36449;SDS011;22475;51.390;7.180;2023-08-17T12:25:09;4.22;;;3.92;;
36449;SDS011;22475;51.390;7.180;2023-08-17T12:27:36;5.80;;;4.63;;
36449;SDS011;22475;51.390;7.180;2023-08-17T12:30:03;4.47;;;4.18;;
36449;SDS011;22475;51.390;7.180;2023-08-17T12:32:31;4.90;;;4.45;;
36449;SDS011;22475;51.390;7.180;2023-08-17T12:34:59;6.22;;;4.07;;
36449;SDS011;22475;51.390;7.180;2023-08-17T12:37:25;6.07;;;4.57;;
36449;SDS011;22475;51.390;7.180;2023-08-17T12:39:52;6.05;;;3.78;;
36449;SDS011;22475;51.390;7.180;2023-08-17T12:42:19;3.88;;;3.58;;
36449;SDS011;22475;51.390;7.180;2023-08-17T12:44:46;7.35;;;4.82;;
36449;SDS011;22475;51.390;7.180;2023-08-17T12:47:12;4.60;;;4.20;;
36449;SDS011;22475;51.390;7.180;2023-08-17T12:49:39;6.10;;;4.38;;
36449;SDS011;22475;51.390;7.180;2023-08-17T12:52:07;5.80;;;4.38;;
36449;SDS011;22475;51.390;7.180;2023-08-17T12:54:34;3.85;;;3.63;;
36449;SDS011;22475;51.390;7.180;2023-08-17T12:57:00;4.28;;;3.90;;
36449;SDS011;22475;51.390;7.180;2023-08-17T12:59:28;4.20;;;3.83;;
36449;SDS011;22475;51.390;7.180;2023-08-17T13:01:54;3.60;;;3.30;;
36449;SDS011;22475;51.390;7.180;2023-08-17T13:04:21;4.07;;;3.72;;
36449;SDS011;22475;51.390;7.180;2023-08-17T13:06:48;4.32;;;3.90;;
36449;SDS011;22475;51.390;7.180;2023-08-17T13:09:17;4.63;;;4.22;;
36449;SDS011;22475;51.390;7.180;2023-08-17T13:11:44;3.58;;;3.28;;
36449;SDS011;22475;51.390;7.180;2023-08-17T13:14:11;3.15;;;2.95;;
36449;SDS011;22475;51.390;7.180;2023-08-17T13:16:38;4.43;;;4.13;;
36449;SDS011;22475;51.390;7.180;2023-08-17T13:19:05;4.43;;;3.65;;
36449;SDS011;22475;51.390;7.180;2023-08-17T13:21:31;3.40;;;3.10;;
36449;SDS011;22475;51.390;7.180;2023-08-17T13:23:58;5.85;;;4.25;;
36449;SDS011;22475;51.390;7.180;2023-08-17T13:26:26;4.68;;;4.00;;
36449;SDS011;22475;51.390;7.180;2023-08-17T13:28:53;4.38;;;3.92;;
36449;SDS011;22475;51.390;7.180;2023-08-17T13:31:20;5.18;;;4.78;;
36449;SDS011;22475;51.390;7.180;2023-08-17T13:33:46;3.88;;;3.58;;
36449;SDS011;22475;51.390;7.180;2023-08-17T13:36:13;3.63;;;3.42;;
36449;SDS011;22475;51.390;7.180;2023-08-17T13:38:40;4.10;;;3.80;;
36449;SDS011;22475;51.390;7.180;2023-08-17T13:41:07;5.32;;;4.88;;
36449;SDS011;22475;51.390;7.180;2023-08-17T13:43:35;4.47;;;4.15;;
36449;SDS011;22475;51.390;7.180;2023-08-17T13:46:02;6.10;;;4.30;;
36449;SDS011;22475;51.390;7.180;2023-08-17T13:48:28;4.43;;;4.13;;
36449;SDS011;22475;51.390;7.180;2023-08-17T13:50:55;5.93;;;5.30;;
36449;SDS011;22475;51.390;7.180;2023-08-17T13:53:22;6.53;;;3.78;;
36449;SDS011;22475;51.390;7.180;2023-08-17T13:55:49;5.90;;;5.15;;
36449;SDS011;22475;51.390;7.180;2023-08-17T13:58:15;7.32;;;6.60;;
36449;SDS011;22475;51.390;7.180;2023-08-17T14:00:43;7.88;;;6.10;;
36449;SDS011;22475;51.390;7.180;2023-08-17T14:03:10;6.55;;;5.95;;
36449;SDS011;22475;51.390;7.180;2023-08-17T14:05:37;6.78;;;5.20;;
36449;SDS011;22475;51.390;7.180;2023-08-17T14:08:05;4.82;;;4.43;;
36449;SDS011;22475;51.390;7.180;2023-08-17T14:10:31;6.00;;;5.38;;
36449;SDS011;22475;51.390;7.180;2023-08-17T14:13:01;5.38;;;4.97;;
36449;SDS011;22475;51.390;7.180;2023-08-17T14:15:28;11.60;;;4.93;;
36449;SDS011;22475;51.390;7.180;2023-08-17T14:17:56;5.18;;;4.78;;
36449;SDS011;22475;51.390;7.180;2023-08-17T14:20:23;6.85;;;5.20;;
36449;SDS011;22475;51.390;7.180;2023-08-17T14:22:49;8.95;;;7.10;;
36449;SDS011;22475;51.390;7.180;2023-08-17T14:25:16;5.45;;;4.90;;
36449;SDS011;22475;51.390;7.180;2023-08-17T14:27:43;5.78;;;5.30;;
36449;SDS011;22475;51.390;7.180;2023-08-17T14:30:10;7.78;;;5.80;;
36449;SDS011;22475;51.390;7.180;2023-08-17T14:32:37;7.78;;;6.13;;
36449;SDS011;22475;51.390;7.180;2023-08-17T14:35:05;8.40;;;5.85;;
36449;SDS011;22475;51.390;7.180;2023-08-17T14:37:32;9.80;;;5.55;;
36449;SDS011;22475;51.390;7.180;2023-08-17T14:40:00;4.30;;;3.92;;
36449;SDS011;22475;51.390;7.180;2023-08-17T14:42:28;4.15;;;3.95;;
36449;SDS011;22475;51.390;7.180;2023-08-17T14:44:55;7.93;;;6.07;;
36449;SDS011;22475;51.390;7.180;2023-08-17T14:47:22;5.97;;;5.38;;
36449;SDS011;22475;51.390;7.180;2023-08-17T14:49:49;8.30;;;5.40;;
36449;SDS011;22475;51.390;7.180;2023-08-17T14:52:17;5.53;;;4.85;;